sensor_id;sensor_type;location;lat;lon;timestamp;temperature;humidity
35920;DHT22;36160;53.370;-6.196;2023-04-25T00:01:17;6.60;99.90
35920;DHT22;36160;53.370;-6.196;2023-04-25T00:03:43;6.60;99.90
35920;DHT22;36160;53.370;-6.196;2023-04-25T00:06:08;6.50;99.90
35920;DHT22;36160;53.370;-6.196;2023-04-25T00:08:34;6.50;99.90
35920;DHT22;36160;53.370;-6.196;2023-04-25T00:11:01;6.40;99.90
35920;DHT22;36160;53.370;-6.196;2023-04-25T00:13:26;6.40;99.90
35920;DHT22;36160;53.370;-6.196;2023-04-25T00:15:52;6.40;99.90
35920;DHT22;36160;53.370;-6.196;2023-04-25T00:18:22;6.30;99.90
35920;DHT22;36160;53.370;-6.196;2023-04-25T00:20:48;6.20;99.90
35920;DHT22;36160;53.370;-6.196;2023-04-25T00:23:15;6.20;99.90
35920;DHT22;36160;53.370;-6.196;2023-04-25T00:25:47;6.10;99.90
35920;DHT22;36160;53.370;-6.196;2023-04-25T00:28:13;6.00;99.90
35920;DHT22;36160;53.370;-6.196;2023-04-25T00:30:39;6.00;99.90
35920;DHT22;36160;53.370;-6.196;2023-04-25T00:33:06;5.90;99.90
35920;DHT22;36160;53.370;-6.196;2023-04-25T00:35:31;5.90;99.90
35920;DHT22;36160;53.370;-6.196;2023-04-25T00:37:57;5.90;99.90
35920;DHT22;36160;53.370;-6.196;2023-04-25T00:40:23;5.80;99.90
35920;DHT22;36160;53.370;-6.196;2023-04-25T00:42:50;5.80;99.90
35920;DHT22;36160;53.370;-6.196;2023-04-25T00:45:17;5.70;99.90
35920;DHT22;36160;53.370;-6.196;2023-04-25T00:47:43;5.70;99.90
35920;DHT22;36160;53.370;-6.196;2023-04-25T00:50:10;5.70;99.90
35920;DHT22;36160;53.370;-6.196;2023-04-25T00:52:39;5.70;99.90
35920;DHT22;36160;53.370;-6.196;2023-04-25T00:55:06;5.70;99.90
35920;DHT22;36160;53.370;-6.196;2023-04-25T00:57:33;5.70;99.90
35920;DHT22;36160;53.370;-6.196;2023-04-25T00:59:59;5.60;99.90
35920;DHT22;36160;53.370;-6.196;2023-04-25T01:02:26;5.60;99.90
35920;DHT22;36160;53.370;-6.196;2023-04-25T01:04:52;5.60;99.90
35920;DHT22;36160;53.370;-6.196;2023-04-25T01:07:18;5.60;99.90
35920;DHT22;36160;53.370;-6.196;2023-04-25T01:09:45;5.50;99.90
35920;DHT22;36160;53.370;-6.196;2023-04-25T01:12:11;5.50;99.90
35920;DHT22;36160;53.370;-6.196;2023-04-25T01:14:38;5.50;99.90
35920;DHT22;36160;53.370;-6.196;2023-04-25T01:17:03;5.50;99.90
35920;DHT22;36160;53.370;-6.196;2023-04-25T01:19:29;5.40;99.90
35920;DHT22;36160;53.370;-6.196;2023-04-25T01:21:56;5.50;99.90
35920;DHT22;36160;53.370;-6.196;2023-04-25T01:24:22;5.40;99.90
35920;DHT22;36160;53.370;-6.196;2023-04-25T01:26:48;5.40;99.90
35920;DHT22;36160;53.370;-6.196;2023-04-25T01:29:19;5.50;99.90
35920;DHT22;36160;53.370;-6.196;2023-04-25T01:31:46;5.50;99.90
35920;DHT22;36160;53.370;-6.196;2023-04-25T01:34:14;5.50;99.90
35920;DHT22;36160;53.370;-6.196;2023-04-25T01:36:40;5.50;99.90
35920;DHT22;36160;53.370;-6.196;2023-04-25T01:39:06;5.60;99.90
35920;DHT22;36160;53.370;-6.196;2023-04-25T01:41:33;5.60;99.90
35920;DHT22;36160;53.370;-6.196;2023-04-25T01:44:02;5.60;99.90
35920;DHT22;36160;53.370;-6.196;2023-04-25T01:46:28;5.60;99.90
35920;DHT22;36160;53.370;-6.196;2023-04-25T01:48:54;5.60;99.90
35920;DHT22;36160;53.370;-6.196;2023-04-25T01:51:20;5.60;99.90
35920;DHT22;36160;53.370;-6.196;2023-04-25T01:53:46;5.60;99.90
35920;DHT22;36160;53.370;-6.196;2023-04-25T01:56:12;5.60;99.90
35920;DHT22;36160;53.370;-6.196;2023-04-25T01:58:37;5.60;99.90
35920;DHT22;36160;53.370;-6.196;2023-04-25T02:01:03;5.60;99.90
35920;DHT22;36160;53.370;-6.196;2023-04-25T02:03:30;5.80;99.90
35920;DHT22;36160;53.370;-6.196;2023-04-25T02:05:56;5.70;99.90
35920;DHT22;36160;53.370;-6.196;2023-04-25T02:08:22;5.70;99.90
35920;DHT22;36160;53.370;-6.196;2023-04-25T02:10:47;5.80;99.90
35920;DHT22;36160;53.370;-6.196;2023-04-25T02:13:13;5.80;99.90
35920;DHT22;36160;53.370;-6.196;2023-04-25T02:15:39;5.90;99.90
35920;DHT22;36160;53.370;-6.196;2023-04-25T02:18:05;5.80;99.90
35920;DHT22;36160;53.370;-6.196;2023-04-25T02:20:32;5.90;99.90
35920;DHT22;36160;53.370;-6.196;2023-04-25T02:22:57;5.90;99.90
35920;DHT22;36160;53.370;-6.196;2023-04-25T02:25:23;5.80;99.90
35920;DHT22;36160;53.370;-6.196;2023-04-25T02:27:49;5.80;99.90
35920;DHT22;36160;53.370;-6.196;2023-04-25T02:30:15;5.80;99.90
35920;DHT22;36160;53.370;-6.196;2023-04-25T02:32:41;5.80;99.90
35920;DHT22;36160;53.370;-6.196;2023-04-25T02:35:07;5.80;99.90
35920;DHT22;36160;53.370;-6.196;2023-04-25T02:37:34;5.80;99.90
35920;DHT22;36160;53.370;-6.196;2023-04-25T02:40:01;5.80;99.90
35920;DHT22;36160;53.370;-6.196;2023-04-25T02:42:27;5.70;99.90
35920;DHT22;36160;53.370;-6.196;2023-04-25T02:44:53;5.70;99.90
35920;DHT22;36160;53.370;-6.196;2023-04-25T02:47:18;5.70;99.90
35920;DHT22;36160;53.370;-6.196;2023-04-25T02:49:44;5.60;99.90
35920;DHT22;36160;53.370;-6.196;2023-04-25T02:52:11;5.70;99.90
35920;DHT22;36160;53.370;-6.196;2023-04-25T02:54:37;5.70;99.90
35920;DHT22;36160;53.370;-6.196;2023-04-25T02:57:03;5.60;99.90
35920;DHT22;36160;53.370;-6.196;2023-04-25T02:59:28;5.70;99.90
35920;DHT22;36160;53.370;-6.196;2023-04-25T03:01:54;5.70;99.90
35920;DHT22;36160;53.370;-6.196;2023-04-25T03:04:20;5.60;99.90
35920;DHT22;36160;53.370;-6.196;2023-04-25T03:06:46;5.60;99.90
35920;DHT22;36160;53.370;-6.196;2023-04-25T03:09:12;5.60;99.90
35920;DHT22;36160;53.370;-6.196;2023-04-25T03:11:39;5.50;99.90
35920;DHT22;36160;53.370;-6.196;2023-04-25T03:14:04;5.50;99.90
35920;DHT22;36160;53.370;-6.196;2023-04-25T03:16:30;5.60;99.90
35920;DHT22;36160;53.370;-6.196;2023-04-25T03:18:56;5.50;99.90
35920;DHT22;36160;53.370;-6.196;2023-04-25T03:21:22;5.50;99.90
35920;DHT22;36160;53.370;-6.196;2023-04-25T03:23:48;5.40;99.90
35920;DHT22;36160;53.370;-6.196;2023-04-25T03:26:13;5.40;99.90
35920;DHT22;36160;53.370;-6.196;2023-04-25T03:28:39;5.30;99.90
35920;DHT22;36160;53.370;-6.196;2023-04-25T03:31:05;5.20;99.90
35920;DHT22;36160;53.370;-6.196;2023-04-25T03:33:31;5.20;99.90
35920;DHT22;36160;53.370;-6.196;2023-04-25T03:35:57;5.10;99.90
35920;DHT22;36160;53.370;-6.196;2023-04-25T03:38:23;5.10;99.90
35920;DHT22;36160;53.370;-6.196;2023-04-25T03:40:50;5.10;99.90
35920;DHT22;36160;53.370;-6.196;2023-04-25T03:43:16;5.00;99.90
35920;DHT22;36160;53.370;-6.196;2023-04-25T03:45:41;5.00;99.90
35920;DHT22;36160;53.370;-6.196;2023-04-25T03:48:07;4.90;99.90
35920;DHT22;36160;53.370;-6.196;2023-04-25T03:50:33;4.90;99.90
35920;DHT22;36160;53.370;-6.196;2023-04-25T03:52:59;4.90;99.90
35920;DHT22;36160;53.370;-6.196;2023-04-25T03:55:25;5.00;99.90
35920;DHT22;36160;53.370;-6.196;2023-04-25T03:57:50;5.00;99.90
35920;DHT22;36160;53.370;-6.196;2023-04-25T04:00:16;4.90;99.90
35920;DHT22;36160;53.370;-6.196;2023-04-25T04:02:42;5.00;99.90
35920;DHT22;36160;53.370;-6.196;2023-04-25T04:05:07;5.00;99.90
35920;DHT22;36160;53.370;-6.196;2023-04-25T04:07:33;4.90;99.90
35920;DHT22;36160;53.370;-6.196;2023-04-25T04:10:08;5.00;99.90
35920;DHT22;36160;53.370;-6.196;2023-04-25T04:12:34;5.00;99.90
35920;DHT22;36160;53.370;-6.196;2023-04-25T04:15:00;5.00;99.90
35920;DHT22;36160;53.370;-6.196;2023-04-25T04:17:26;5.00;99.90
35920;DHT22;36160;53.370;-6.196;2023-04-25T04:19:52;4.90;99.90
35920;DHT22;36160;53.370;-6.196;2023-04-25T04:22:17;4.90;99.90
35920;DHT22;36160;53.370;-6.196;2023-04-25T04:24:43;4.80;99.90
35920;DHT22;36160;53.370;-6.196;2023-04-25T04:27:09;4.80;99.90
35920;DHT22;36160;53.370;-6.196;2023-04-25T04:29:35;4.80;99.90
35920;DHT22;36160;53.370;-6.196;2023-04-25T04:32:02;4.70;99.90
35920;DHT22;36160;53.370;-6.196;2023-04-25T04:34:28;4.70;99.90
35920;DHT22;36160;53.370;-6.196;2023-04-25T04:36:54;4.70;99.90
35920;DHT22;36160;53.370;-6.196;2023-04-25T04:39:20;4.70;99.90
35920;DHT22;36160;53.370;-6.196;2023-04-25T04:41:46;4.60;99.90
35920;DHT22;36160;53.370;-6.196;2023-04-25T04:44:12;4.50;99.90
35920;DHT22;36160;53.370;-6.196;2023-04-25T04:46:39;4.50;99.90
35920;DHT22;36160;53.370;-6.196;2023-04-25T04:49:06;4.50;99.90
35920;DHT22;36160;53.370;-6.196;2023-04-25T04:51:31;4.50;99.90
35920;DHT22;36160;53.370;-6.196;2023-04-25T04:53:58;4.40;99.90
35920;DHT22;36160;53.370;-6.196;2023-04-25T04:56:30;4.40;99.90
35920;DHT22;36160;53.370;-6.196;2023-04-25T04:58:57;4.30;99.90
35920;DHT22;36160;53.370;-6.196;2023-04-25T05:01:23;4.30;99.90
35920;DHT22;36160;53.370;-6.196;2023-04-25T05:03:49;4.30;99.90
35920;DHT22;36160;53.370;-6.196;2023-04-25T05:06:16;4.20;99.90
35920;DHT22;36160;53.370;-6.196;2023-04-25T05:08:41;4.20;99.90
35920;DHT22;36160;53.370;-6.196;2023-04-25T05:11:07;4.10;99.90
35920;DHT22;36160;53.370;-6.196;2023-04-25T05:13:33;4.10;99.90
35920;DHT22;36160;53.370;-6.196;2023-04-25T05:15:58;4.10;99.90
35920;DHT22;36160;53.370;-6.196;2023-04-25T05:18:24;4.20;99.90
35920;DHT22;36160;53.370;-6.196;2023-04-25T05:20:50;4.20;99.90
35920;DHT22;36160;53.370;-6.196;2023-04-25T05:23:16;4.10;99.90
35920;DHT22;36160;53.370;-6.196;2023-04-25T05:25:42;4.10;99.90
35920;DHT22;36160;53.370;-6.196;2023-04-25T05:28:07;4.10;99.90
35920;DHT22;36160;53.370;-6.196;2023-04-25T05:30:34;4.10;99.90
35920;DHT22;36160;53.370;-6.196;2023-04-25T05:32:59;4.10;99.90
35920;DHT22;36160;53.370;-6.196;2023-04-25T05:35:26;4.20;99.90
35920;DHT22;36160;53.370;-6.196;2023-04-25T05:37:52;4.10;99.90
35920;DHT22;36160;53.370;-6.196;2023-04-25T05:40:18;4.20;99.90
35920;DHT22;36160;53.370;-6.196;2023-04-25T05:42:44;4.20;99.90
35920;DHT22;36160;53.370;-6.196;2023-04-25T05:45:10;4.20;99.90
35920;DHT22;36160;53.370;-6.196;2023-04-25T05:47:35;4.30;99.90
35920;DHT22;36160;53.370;-6.196;2023-04-25T05:50:01;4.20;99.90
35920;DHT22;36160;53.370;-6.196;2023-04-25T05:52:27;4.30;99.90
35920;DHT22;36160;53.370;-6.196;2023-04-25T05:54:53;4.30;99.90
35920;DHT22;36160;53.370;-6.196;2023-04-25T05:57:22;4.30;99.90
35920;DHT22;36160;53.370;-6.196;2023-04-25T05:59:48;4.30;99.90
35920;DHT22;36160;53.370;-6.196;2023-04-25T06:02:13;4.30;99.90
35920;DHT22;36160;53.370;-6.196;2023-04-25T06:04:39;4.30;99.90
35920;DHT22;36160;53.370;-6.196;2023-04-25T06:07:05;4.40;99.90
35920;DHT22;36160;53.370;-6.196;2023-04-25T06:09:30;4.40;99.90
35920;DHT22;36160;53.370;-6.196;2023-04-25T06:11:56;4.50;99.90
35920;DHT22;36160;53.370;-6.196;2023-04-25T06:14:21;4.60;99.90
35920;DHT22;36160;53.370;-6.196;2023-04-25T06:16:47;4.60;99.90
35920;DHT22;36160;53.370;-6.196;2023-04-25T06:19:12;4.70;99.90
35920;DHT22;36160;53.370;-6.196;2023-04-25T06:21:38;4.80;99.90
35920;DHT22;36160;53.370;-6.196;2023-04-25T06:24:04;4.90;99.90
35920;DHT22;36160;53.370;-6.196;2023-04-25T06:26:30;5.00;99.90
35920;DHT22;36160;53.370;-6.196;2023-04-25T06:28:55;5.10;99.90
35920;DHT22;36160;53.370;-6.196;2023-04-25T06:31:21;5.10;99.90
35920;DHT22;36160;53.370;-6.196;2023-04-25T06:33:46;5.30;99.90
35920;DHT22;36160;53.370;-6.196;2023-04-25T06:36:13;5.40;99.90
35920;DHT22;36160;53.370;-6.196;2023-04-25T06:38:39;5.50;99.90
35920;DHT22;36160;53.370;-6.196;2023-04-25T06:41:04;5.50;99.90
35920;DHT22;36160;53.370;-6.196;2023-04-25T06:43:30;5.60;99.90
35920;DHT22;36160;53.370;-6.196;2023-04-25T06:45:59;5.70;99.90
35920;DHT22;36160;53.370;-6.196;2023-04-25T06:48:26;5.80;99.90
35920;DHT22;36160;53.370;-6.196;2023-04-25T06:50:52;5.90;99.90
35920;DHT22;36160;53.370;-6.196;2023-04-25T06:53:19;6.00;99.90
35920;DHT22;36160;53.370;-6.196;2023-04-25T06:55:45;6.10;99.90
35920;DHT22;36160;53.370;-6.196;2023-04-25T06:58:10;6.30;99.90
35920;DHT22;36160;53.370;-6.196;2023-04-25T07:00:36;6.50;99.90
35920;DHT22;36160;53.370;-6.196;2023-04-25T07:03:01;6.70;99.90
35920;DHT22;36160;53.370;-6.196;2023-04-25T07:05:28;6.90;99.90
35920;DHT22;36160;53.370;-6.196;2023-04-25T07:07:55;7.00;99.90
35920;DHT22;36160;53.370;-6.196;2023-04-25T07:10:21;7.00;99.90
35920;DHT22;36160;53.370;-6.196;2023-04-25T07:12:47;7.20;99.90
35920;DHT22;36160;53.370;-6.196;2023-04-25T07:15:12;7.30;99.90
35920;DHT22;36160;53.370;-6.196;2023-04-25T07:17:38;7.50;99.90
35920;DHT22;36160;53.370;-6.196;2023-04-25T07:20:04;7.80;99.90
35920;DHT22;36160;53.370;-6.196;2023-04-25T07:22:32;8.00;99.90
35920;DHT22;36160;53.370;-6.196;2023-04-25T07:24:58;8.10;99.90
35920;DHT22;36160;53.370;-6.196;2023-04-25T07:27:23;7.90;99.90
35920;DHT22;36160;53.370;-6.196;2023-04-25T07:29:49;7.80;99.90
35920;DHT22;36160;53.370;-6.196;2023-04-25T07:32:16;7.80;70.20
35920;DHT22;36160;53.370;-6.196;2023-04-25T07:34:42;7.90;99.90
35920;DHT22;36160;53.370;-6.196;2023-04-25T07:37:08;7.90;99.90
35920;DHT22;36160;53.370;-6.196;2023-04-25T07:39:33;7.90;99.90
35920;DHT22;36160;53.370;-6.196;2023-04-25T07:42:00;8.10;22.50
35920;DHT22;36160;53.370;-6.196;2023-04-25T07:44:27;8.30;99.90
35920;DHT22;36160;53.370;-6.196;2023-04-25T07:46:53;8.50;1.00
35920;DHT22;36160;53.370;-6.196;2023-04-25T07:49:19;8.70;1.00
35920;DHT22;36160;53.370;-6.196;2023-04-25T07:51:45;8.90;99.90
35920;DHT22;36160;53.370;-6.196;2023-04-25T07:54:14;9.00;99.90
35920;DHT22;36160;53.370;-6.196;2023-04-25T07:56:41;9.20;17.00
35920;DHT22;36160;53.370;-6.196;2023-04-25T07:59:06;9.00;99.90
35920;DHT22;36160;53.370;-6.196;2023-04-25T08:01:33;9.10;99.90
35920;DHT22;36160;53.370;-6.196;2023-04-25T08:03:59;9.20;99.90
35920;DHT22;36160;53.370;-6.196;2023-04-25T08:06:25;9.30;18.00
35920;DHT22;36160;53.370;-6.196;2023-04-25T08:08:51;9.40;99.90
35920;DHT22;36160;53.370;-6.196;2023-04-25T08:11:16;9.30;99.90
35920;DHT22;36160;53.370;-6.196;2023-04-25T08:13:42;9.30;99.90
35920;DHT22;36160;53.370;-6.196;2023-04-25T08:16:08;9.40;65.10
35920;DHT22;36160;53.370;-6.196;2023-04-25T08:18:34;9.40;1.00
35920;DHT22;36160;53.370;-6.196;2023-04-25T08:21:00;9.50;99.90
35920;DHT22;36160;53.370;-6.196;2023-04-25T08:23:25;9.50;28.00
35920;DHT22;36160;53.370;-6.196;2023-04-25T08:25:51;9.60;99.90
35920;DHT22;36160;53.370;-6.196;2023-04-25T14:44:11;12.20;93.50
35920;DHT22;36160;53.370;-6.196;2023-04-25T14:46:37;12.20;86.70
35920;DHT22;36160;53.370;-6.196;2023-04-25T14:49:03;12.20;64.70
35920;DHT22;36160;53.370;-6.196;2023-04-25T14:51:29;12.40;83.50
35920;DHT22;36160;53.370;-6.196;2023-04-25T14:53:55;12.50;72.50
35920;DHT22;36160;53.370;-6.196;2023-04-25T14:56:20;12.50;46.60
35920;DHT22;36160;53.370;-6.196;2023-04-25T14:58:46;12.50;37.30
35920;DHT22;36160;53.370;-6.196;2023-04-25T15:01:12;12.60;24.20
35920;DHT22;36160;53.370;-6.196;2023-04-25T15:03:38;12.70;5.60
35920;DHT22;36160;53.370;-6.196;2023-04-25T15:06:04;12.70;1.00
35920;DHT22;36160;53.370;-6.196;2023-04-25T15:08:29;12.70;1.00
35920;DHT22;36160;53.370;-6.196;2023-04-25T15:10:55;12.80;1.00
35920;DHT22;36160;53.370;-6.196;2023-04-25T15:13:21;12.80;1.00
35920;DHT22;36160;53.370;-6.196;2023-04-25T15:15:46;12.70;1.00
35920;DHT22;36160;53.370;-6.196;2023-04-25T15:18:20;12.60;1.00
35920;DHT22;36160;53.370;-6.196;2023-04-25T15:20:51;12.50;1.00
35920;DHT22;36160;53.370;-6.196;2023-04-25T15:23:17;12.40;99.90
35920;DHT22;36160;53.370;-6.196;2023-04-25T15:25:43;12.40;99.90
35920;DHT22;36160;53.370;-6.196;2023-04-25T15:28:09;12.30;99.90
35920;DHT22;36160;53.370;-6.196;2023-04-25T15:30:34;12.30;99.90
35920;DHT22;36160;53.370;-6.196;2023-04-25T15:33:00;12.40;1.00
35920;DHT22;36160;53.370;-6.196;2023-04-25T15:35:26;12.30;1.00
35920;DHT22;36160;53.370;-6.196;2023-04-25T15:37:51;12.30;99.90
35920;DHT22;36160;53.370;-6.196;2023-04-25T15:40:17;12.30;99.90
35920;DHT22;36160;53.370;-6.196;2023-04-25T15:42:46;12.20;99.90
35920;DHT22;36160;53.370;-6.196;2023-04-25T15:45:12;12.20;99.90
35920;DHT22;36160;53.370;-6.196;2023-04-25T15:47:39;12.10;99.90
35920;DHT22;36160;53.370;-6.196;2023-04-25T15:50:05;11.90;99.90
35920;DHT22;36160;53.370;-6.196;2023-04-25T15:52:31;11.90;99.90
35920;DHT22;36160;53.370;-6.196;2023-04-25T15:54:57;11.90;1.00
35920;DHT22;36160;53.370;-6.196;2023-04-25T15:57:23;11.90;99.90
35920;DHT22;36160;53.370;-6.196;2023-04-25T15:59:49;11.80;99.90
35920;DHT22;36160;53.370;-6.196;2023-04-25T16:02:15;11.90;99.90
35920;DHT22;36160;53.370;-6.196;2023-04-25T16:04:41;11.80;99.90
35920;DHT22;36160;53.370;-6.196;2023-04-25T16:07:07;11.90;99.90
35920;DHT22;36160;53.370;-6.196;2023-04-25T16:09:34;11.90;99.90
35920;DHT22;36160;53.370;-6.196;2023-04-25T16:12:00;11.60;99.90
35920;DHT22;36160;53.370;-6.196;2023-04-25T16:14:26;11.70;99.90
35920;DHT22;36160;53.370;-6.196;2023-04-25T16:16:51;11.50;99.90
35920;DHT22;36160;53.370;-6.196;2023-04-25T16:19:17;11.70;99.90
35920;DHT22;36160;53.370;-6.196;2023-04-25T16:21:43;11.70;99.90
35920;DHT22;36160;53.370;-6.196;2023-04-25T16:24:09;11.80;99.90
35920;DHT22;36160;53.370;-6.196;2023-04-25T16:26:35;11.90;99.90
35920;DHT22;36160;53.370;-6.196;2023-04-25T16:29:04;11.90;99.90
35920;DHT22;36160;53.370;-6.196;2023-04-25T16:31:32;12.00;99.90
35920;DHT22;36160;53.370;-6.196;2023-04-25T16:33:58;12.00;99.90
35920;DHT22;36160;53.370;-6.196;2023-04-25T16:36:23;11.90;99.90
35920;DHT22;36160;53.370;-6.196;2023-04-25T16:38:49;11.80;99.90
35920;DHT22;36160;53.370;-6.196;2023-04-25T16:41:15;11.90;99.90
35920;DHT22;36160;53.370;-6.196;2023-04-25T16:43:40;11.80;99.90
35920;DHT22;36160;53.370;-6.196;2023-04-25T16:46:06;11.70;99.90
35920;DHT22;36160;53.370;-6.196;2023-04-25T16:48:32;11.60;99.90
35920;DHT22;36160;53.370;-6.196;2023-04-25T16:50:59;11.70;99.90
35920;DHT22;36160;53.370;-6.196;2023-04-25T16:53:25;11.60;99.90
35920;DHT22;36160;53.370;-6.196;2023-04-25T16:55:51;11.60;99.90
35920;DHT22;36160;53.370;-6.196;2023-04-25T16:58:17;11.60;99.90
35920;DHT22;36160;53.370;-6.196;2023-04-25T17:00:43;11.50;1.00
35920;DHT22;36160;53.370;-6.196;2023-04-25T17:03:11;11.60;1.00
35920;DHT22;36160;53.370;-6.196;2023-04-25T17:05:38;11.50;1.00
35920;DHT22;36160;53.370;-6.196;2023-04-25T17:08:05;11.60;1.00
35920;DHT22;36160;53.370;-6.196;2023-04-25T17:10:31;11.40;1.00
35920;DHT22;36160;53.370;-6.196;2023-04-25T17:12:58;11.50;1.00
35920;DHT22;36160;53.370;-6.196;2023-04-25T17:15:24;11.60;1.00
35920;DHT22;36160;53.370;-6.196;2023-04-25T17:17:50;11.60;1.00
35920;DHT22;36160;53.370;-6.196;2023-04-25T17:20:16;11.50;1.00
35920;DHT22;36160;53.370;-6.196;2023-04-25T17:22:42;11.50;1.00
35920;DHT22;36160;53.370;-6.196;2023-04-25T17:25:08;11.40;1.00
35920;DHT22;36160;53.370;-6.196;2023-04-25T17:27:34;11.40;1.00
35920;DHT22;36160;53.370;-6.196;2023-04-25T17:30:01;11.30;1.00
35920;DHT22;36160;53.370;-6.196;2023-04-25T17:32:28;11.20;1.00
35920;DHT22;36160;53.370;-6.196;2023-04-25T17:34:54;11.30;1.00
35920;DHT22;36160;53.370;-6.196;2023-04-25T17:37:21;11.30;1.00
35920;DHT22;36160;53.370;-6.196;2023-04-25T17:39:47;11.10;1.00
35920;DHT22;36160;53.370;-6.196;2023-04-25T17:42:14;11.10;1.00
35920;DHT22;36160;53.370;-6.196;2023-04-25T17:44:40;11.10;1.00
35920;DHT22;36160;53.370;-6.196;2023-04-25T17:47:06;11.10;1.00
35920;DHT22;36160;53.370;-6.196;2023-04-25T17:49:32;11.10;1.00
35920;DHT22;36160;53.370;-6.196;2023-04-25T17:51:59;11.00;1.00
35920;DHT22;36160;53.370;-6.196;2023-04-25T17:54:26;11.10;1.00
35920;DHT22;36160;53.370;-6.196;2023-04-25T17:56:53;11.00;1.00
35920;DHT22;36160;53.370;-6.196;2023-04-25T17:59:19;10.90;1.00
35920;DHT22;36160;53.370;-6.196;2023-04-25T18:01:46;10.90;1.00
35920;DHT22;36160;53.370;-6.196;2023-04-25T18:04:12;10.90;2.60
35920;DHT22;36160;53.370;-6.196;2023-04-25T18:06:38;10.90;4.00
35920;DHT22;36160;53.370;-6.196;2023-04-25T18:09:04;10.90;6.60
35920;DHT22;36160;53.370;-6.196;2023-04-25T18:11:41;10.80;7.80
35920;DHT22;36160;53.370;-6.196;2023-04-25T18:14:07;10.80;11.10
35920;DHT22;36160;53.370;-6.196;2023-04-25T18:16:44;10.60;15.80
35920;DHT22;36160;53.370;-6.196;2023-04-25T18:19:10;10.70;27.00
35920;DHT22;36160;53.370;-6.196;2023-04-25T18:21:44;10.60;43.70
35920;DHT22;36160;53.370;-6.196;2023-04-25T18:24:14;10.70;62.90
35920;DHT22;36160;53.370;-6.196;2023-04-25T18:26:43;10.70;56.90
35920;DHT22;36160;53.370;-6.196;2023-04-25T18:29:10;10.60;62.80
35920;DHT22;36160;53.370;-6.196;2023-04-25T18:31:36;10.60;74.30
35920;DHT22;36160;53.370;-6.196;2023-04-25T18:34:02;10.50;89.70
35920;DHT22;36160;53.370;-6.196;2023-04-25T18:36:27;10.50;80.50
35920;DHT22;36160;53.370;-6.196;2023-04-25T18:38:57;10.50;84.60
35920;DHT22;36160;53.370;-6.196;2023-04-25T18:41:23;10.40;77.10
35920;DHT22;36160;53.370;-6.196;2023-04-25T18:43:53;10.40;88.80
35920;DHT22;36160;53.370;-6.196;2023-04-25T18:46:20;10.40;80.70
35920;DHT22;36160;53.370;-6.196;2023-04-25T18:48:50;10.30;83.40
35920;DHT22;36160;53.370;-6.196;2023-04-25T18:51:16;10.30;72.30
35920;DHT22;36160;53.370;-6.196;2023-04-25T18:53:42;10.20;68.70
35920;DHT22;36160;53.370;-6.196;2023-04-25T18:56:08;10.20;85.90
35920;DHT22;36160;53.370;-6.196;2023-04-25T18:58:34;10.10;93.50
35920;DHT22;36160;53.370;-6.196;2023-04-25T19:00:59;10.20;99.90
35920;DHT22;36160;53.370;-6.196;2023-04-25T19:03:26;10.10;99.90
35920;DHT22;36160;53.370;-6.196;2023-04-25T19:05:52;10.10;99.90
35920;DHT22;36160;53.370;-6.196;2023-04-25T19:08:19;10.20;99.90
35920;DHT22;36160;53.370;-6.196;2023-04-25T19:10:44;10.10;99.90
35920;DHT22;36160;53.370;-6.196;2023-04-25T19:13:11;10.00;99.90
35920;DHT22;36160;53.370;-6.196;2023-04-25T19:15:37;10.10;99.90
35920;DHT22;36160;53.370;-6.196;2023-04-25T19:18:04;10.10;99.90
35920;DHT22;36160;53.370;-6.196;2023-04-25T19:20:30;10.00;99.90
35920;DHT22;36160;53.370;-6.196;2023-04-25T19:22:56;10.00;99.90
35920;DHT22;36160;53.370;-6.196;2023-04-25T19:25:22;10.00;99.90
35920;DHT22;36160;53.370;-6.196;2023-04-25T19:27:49;9.90;99.90
35920;DHT22;36160;53.370;-6.196;2023-04-25T19:30:15;9.90;99.90
35920;DHT22;36160;53.370;-6.196;2023-04-25T19:32:41;9.90;99.90
35920;DHT22;36160;53.370;-6.196;2023-04-25T19:35:07;9.90;99.90
35920;DHT22;36160;53.370;-6.196;2023-04-25T19:37:34;9.90;99.90
35920;DHT22;36160;53.370;-6.196;2023-04-25T19:40:00;9.90;99.90
35920;DHT22;36160;53.370;-6.196;2023-04-25T19:42:26;9.90;94.50
35920;DHT22;36160;53.370;-6.196;2023-04-25T19:44:52;9.90;96.60
35920;DHT22;36160;53.370;-6.196;2023-04-25T19:47:18;9.90;99.90
35920;DHT22;36160;53.370;-6.196;2023-04-25T19:49:43;9.90;99.90
35920;DHT22;36160;53.370;-6.196;2023-04-25T19:52:09;9.80;97.60
35920;DHT22;36160;53.370;-6.196;2023-04-25T19:54:40;9.80;89.20
35920;DHT22;36160;53.370;-6.196;2023-04-25T19:57:07;9.70;86.20
35920;DHT22;36160;53.370;-6.196;2023-04-25T19:59:32;9.70;99.70
35920;DHT22;36160;53.370;-6.196;2023-04-25T20:01:59;9.70;81.40
35920;DHT22;36160;53.370;-6.196;2023-04-25T20:04:25;9.70;78.40
35920;DHT22;36160;53.370;-6.196;2023-04-25T20:06:50;9.70;84.40
35920;DHT22;36160;53.370;-6.196;2023-04-25T20:09:17;9.70;81.00
35920;DHT22;36160;53.370;-6.196;2023-04-25T20:11:45;9.70;80.00
35920;DHT22;36160;53.370;-6.196;2023-04-25T20:14:11;9.70;91.30
35920;DHT22;36160;53.370;-6.196;2023-04-25T20:16:37;9.60;73.40
35920;DHT22;36160;53.370;-6.196;2023-04-25T20:19:02;9.70;75.10
35920;DHT22;36160;53.370;-6.196;2023-04-25T20:21:30;9.70;57.00
35920;DHT22;36160;53.370;-6.196;2023-04-25T20:23:57;9.70;53.30
35920;DHT22;36160;53.370;-6.196;2023-04-25T20:26:28;9.60;50.20
35920;DHT22;36160;53.370;-6.196;2023-04-25T20:28:58;9.60;51.60
35920;DHT22;36160;53.370;-6.196;2023-04-25T20:31:24;9.60;66.40
35920;DHT22;36160;53.370;-6.196;2023-04-25T20:33:50;9.60;65.70
35920;DHT22;36160;53.370;-6.196;2023-04-25T20:36:16;9.60;70.50
35920;DHT22;36160;53.370;-6.196;2023-04-25T20:38:44;9.60;76.50
35920;DHT22;36160;53.370;-6.196;2023-04-25T20:41:10;9.60;90.70
35920;DHT22;36160;53.370;-6.196;2023-04-25T20:43:36;9.50;75.00
35920;DHT22;36160;53.370;-6.196;2023-04-25T20:46:04;9.50;74.70
35920;DHT22;36160;53.370;-6.196;2023-04-25T20:48:30;9.50;74.70
35920;DHT22;36160;53.370;-6.196;2023-04-25T20:50:56;9.50;90.10
35920;DHT22;36160;53.370;-6.196;2023-04-25T20:53:24;9.50;90.80
35920;DHT22;36160;53.370;-6.196;2023-04-25T20:55:50;9.40;90.20
35920;DHT22;36160;53.370;-6.196;2023-04-25T20:58:16;9.40;98.00
35920;DHT22;36160;53.370;-6.196;2023-04-25T21:00:42;9.40;99.90
35920;DHT22;36160;53.370;-6.196;2023-04-25T21:03:08;9.40;99.90
35920;DHT22;36160;53.370;-6.196;2023-04-25T21:05:34;9.40;99.90
35920;DHT22;36160;53.370;-6.196;2023-04-25T21:08:00;9.40;99.90
35920;DHT22;36160;53.370;-6.196;2023-04-25T21:10:27;9.40;99.90
35920;DHT22;36160;53.370;-6.196;2023-04-25T21:12:53;9.40;99.90
35920;DHT22;36160;53.370;-6.196;2023-04-25T21:15:20;9.40;99.90
35920;DHT22;36160;53.370;-6.196;2023-04-25T21:17:49;9.40;99.90
35920;DHT22;36160;53.370;-6.196;2023-04-25T21:20:16;9.40;99.90
35920;DHT22;36160;53.370;-6.196;2023-04-25T21:22:49;9.40;99.90
35920;DHT22;36160;53.370;-6.196;2023-04-25T21:25:20;9.40;99.90
35920;DHT22;36160;53.370;-6.196;2023-04-25T21:27:50;9.40;99.90
35920;DHT22;36160;53.370;-6.196;2023-04-25T21:30:17;9.40;99.90
35920;DHT22;36160;53.370;-6.196;2023-04-25T21:32:47;9.30;99.90
35920;DHT22;36160;53.370;-6.196;2023-04-25T21:35:13;9.30;99.90
35920;DHT22;36160;53.370;-6.196;2023-04-25T21:37:39;9.30;99.90